Time;durP1;ratioP1;P1;durP2;ratioP2;P2;SDS_P1;SDS_P2;PMS_P1;PMS_P2;Temp;Humidity;BMP_temperature;BMP_pressure;BME280_temperature;BME280_humidity;BME280_pressure;Samples;Min_cycle;Max_cycle;Signal;HPM_P1;HPM_P2
2022/06/30 00:00:26;;;;;;;13.60;12.20;;;;;;;17.35;100.00;101193.00;5011191;28;20058;-36
2022/06/30 00:02:54;;;;;;;12.82;11.52;;;;;;;17.34;100.00;101191.34;5011492;28;20133;-28
2022/06/30 00:05:22;;;;;;;13.88;11.95;;;;;;;17.35;100.00;101180.88;5011460;28;20042;-35
2022/06/30 00:07:50;;;;;;;17.40;15.73;;;;;;;17.33;100.00;101174.75;5012576;28;20538;-32
2022/06/30 00:10:18;;;;;;;15.60;14.02;;;;;;;17.31;100.00;101168.63;5012344;28;20145;-30
2022/06/30 00:12:46;;;;;;;14.30;12.80;;;;;;;17.29;100.00;101166.13;5012052;28;20061;-29
2022/06/30 00:15:13;;;;;;;11.70;10.50;;;;;;;17.29;100.00;101162.47;5011491;28;20044;-32
2022/06/30 00:17:43;;;;;;;11.75;10.55;;;;;;;17.31;100.00;101162.97;5012250;28;20046;-28
2022/06/30 00:20:11;;;;;;;12.50;11.20;;;;;;;17.30;100.00;101162.13;5011468;28;20049;-28
2022/06/30 00:22:39;;;;;;;13.05;11.75;;;;;;;17.28;100.00;101156.00;5012054;28;20395;-28
2022/06/30 00:25:07;;;;;;;12.65;11.35;;;;;;;17.29;100.00;101156.84;5012154;28;20048;-32
2022/06/30 00:27:35;;;;;;;14.40;12.90;;;;;;;17.30;100.00;101161.31;5011137;28;20050;-31
2022/06/30 00:30:03;;;;;;;13.57;12.18;;;;;;;17.30;100.00;101150.84;5012113;28;20674;-33
2022/06/30 00:32:31;;;;;;;15.57;14.07;;;;;;;17.34;100.00;101159.47;5011743;28;20041;-31
2022/06/30 00:35:01;;;;;;;14.13;12.73;;;;;;;17.34;100.00;101151.84;5011295;28;20132;-29
2022/06/30 00:37:30;;;;;;;15.43;13.85;;;;;;;17.34;100.00;101146.19;5011760;28;20061;-32
2022/06/30 00:39:58;;;;;;;19.92;17.90;;;;;;;17.34;100.00;101145.38;5011210;28;20483;-32
2022/06/30 00:42:25;;;;;;;15.02;13.40;;;;;;;17.34;100.00;101139.72;5011616;28;20057;-35
2022/06/30 00:44:53;;;;;;;14.93;13.43;;;;;;;17.36;100.00;101143.03;5011619;28;20046;-30
2022/06/30 00:47:21;;;;;;;14.25;12.82;;;;;;;17.39;100.00;101140.34;5011030;28;20466;-27
2022/06/30 00:49:49;;;;;;;14.93;13.43;;;;;;;17.45;100.00;101135.34;5011766;28;20057;-28
2022/06/30 00:52:21;;;;;;;13.18;11.88;;;;;;;17.50;100.00;101133.19;5011339;28;20453;-34
2022/06/30 00:54:51;;;;;;;11.67;10.47;;;;;;;17.52;100.00;101130.84;5011225;28;20103;-30
2022/06/30 00:57:21;;;;;;;14.15;12.68;;;;;;;17.54;100.00;101130.50;5011215;28;20296;-28
2022/06/30 00:59:52;;;;;;;14.43;12.93;;;;;;;17.57;100.00;101124.19;5012088;28;20080;-35
2022/06/30 01:02:21;;;;;;;17.87;15.97;;;;;;;17.60;100.00;101125.47;5010657;28;20052;-30
2022/06/30 01:04:52;;;;;;;16.27;14.57;;;;;;;17.65;100.00;101128.97;5011804;28;20289;-28
2022/06/30 01:07:23;;;;;;;16.60;14.93;;;;;;;17.67;100.00;101126.66;5011110;28;20045;-29
2022/06/30 01:12:45;;;;;;;14.02;12.60;;;;;;;17.69;100.00;101117.84;5011368;28;20124;-30
2022/06/30 01:15:15;;;;;;;11.63;10.43;;;;;;;17.73;100.00;101118.81;5006019;28;20117;-28
2022/06/30 01:17:44;;;;;;;13.93;12.52;;;;;;;17.73;100.00;101118.81;5011059;28;20045;-28
2022/06/30 01:20:13;;;;;;;13.60;12.02;;;;;;;17.77;100.00;101111.31;5011060;28;20053;-28
2022/06/30 01:22:43;;;;;;;15.35;13.75;;;;;;;17.82;100.00;101105.47;5010107;28;20053;-29
2022/06/30 01:25:12;;;;;;;13.88;12.45;;;;;;;17.85;100.00;101110.44;5011381;28;20100;-30
2022/06/30 01:27:40;;;;;;;13.38;12.07;;;;;;;17.88;100.00;101118.22;5011072;28;20153;-33
2022/06/30 01:30:09;;;;;;;13.48;11.68;;;;;;;17.88;100.00;101121.03;5009745;28;20046;-32
2022/06/30 01:32:37;;;;;;;10.98;9.93;;;;;;;17.89;100.00;101125.53;5010905;28;20054;-29
2022/06/30 01:35:07;;;;;;;11.05;9.95;;;;;;;17.89;100.00;101119.88;5010799;28;20049;-30
2022/06/30 01:37:54;;;;;;;10.07;9.07;;;;;;;17.92;100.00;101115.53;5009922;28;20189;-30
2022/06/30 01:40:24;;;;;;;9.95;8.95;;;;;;;17.86;100.00;101112.09;5009949;28;20499;-35
2022/06/30 01:42:52;;;;;;;9.60;8.57;;;;;;;17.89;100.00;101111.41;5010808;28;20054;-30
2022/06/30 01:45:21;;;;;;;9.30;8.32;;;;;;;17.91;100.00;101109.06;5008656;28;20070;-36
2022/06/30 01:47:50;;;;;;;6.75;6.10;;;;;;;17.93;100.00;101111.56;5010728;28;20684;-30
2022/06/30 01:50:20;;;;;;;7.10;6.38;;;;;;;17.96;100.00;101111.69;5009762;28;20069;-29
2022/06/30 01:52:51;;;;;;;5.40;4.80;;;;;;;17.98;100.00;101106.53;5010924;28;20046;-28
2022/06/30 01:55:19;;;;;;;4.80;4.10;;;;;;;17.99;100.00;101107.31;5010588;28;20046;-34
2022/06/30 01:57:47;;;;;;;4.53;4.10;;;;;;;18.00;100.00;101103.34;5009758;28;20116;-33
2022/06/30 02:00:17;;;;;;;3.50;2.90;;;;;;;18.02;100.00;101103.81;5009551;28;20479;-35
2022/06/30 02:02:45;;;;;;;4.65;3.92;;;;;;;18.04;100.00;101102.31;5011053;28;20050;-29
2022/06/30 02:05:13;;;;;;;3.80;3.38;;;;;;;18.07;100.00;101101.63;5009618;28;20398;-38
2022/06/30 02:07:41;;;;;;;4.40;3.03;;;;;;;18.11;100.00;101108.25;5010847;28;20067;-29
2022/06/30 02:10:15;;;;;;;4.78;3.35;;;;;;;18.16;100.00;101108.06;5010307;28;20050;-28
2022/06/30 02:12:46;;;;;;;6.05;5.00;;;;;;;18.21;100.00;101112.66;5009841;28;20141;-33
2022/06/30 02:15:28;;;;;;;4.43;4.03;;;;;;;18.25;100.00;101110.78;5010506;28;20041;-33
2022/06/30 02:17:56;;;;;;;;;;;;;;;18.23;100.00;101105.47;5011576;28;20140;-30
2022/06/30 02:20:24;;;;;;;6.35;4.57;;;;;;;18.21;100.00;101104.16;5009513;28;20295;-28
2022/06/30 02:22:54;;;;;;;6.13;4.85;;;;;;;18.28;100.00;101106.44;5010499;28;20054;-28
2022/06/30 02:25:24;;;;;;;5.40;4.90;;;;;;;18.29;100.00;101106.13;5009800;28;20045;-31
2022/06/30 02:27:52;;;;;;;6.30;5.00;;;;;;;18.31;100.00;101095.28;5010292;28;20076;-38
2022/06/30 02:30:20;;;;;;;5.10;4.60;;;;;;;18.34;100.00;101099.44;5010249;28;20033;-33
2022/06/30 02:32:48;;;;;;;7.50;6.70;;;;;;;18.35;100.00;101101.09;5009802;28;20462;-29
2022/06/30 02:35:16;;;;;;;8.15;6.95;;;;;;;18.36;100.00;101097.91;5009967;28;20411;-31
2022/06/30 02:37:44;;;;;;;8.05;5.93;;;;;;;18.40;100.00;101096.03;5010531;28;20125;-33
2022/06/30 02:40:12;;;;;;;6.68;6.07;;;;;;;18.43;100.00;101101.00;5009828;28;20042;-36
2022/06/30 02:42:42;;;;;;;8.18;6.88;;;;;;;18.48;100.00;101095.13;5010378;28;20038;-35
2022/06/30 02:45:10;;;;;;;7.32;6.10;;;;;;;18.50;100.00;101094.78;5010005;28;20399;-33
2022/06/30 02:47:40;;;;;;;6.38;5.68;;;;;;;18.51;100.00;101090.78;5005167;28;20050;-31
2022/06/30 02:50:10;;;;;;;8.38;7.28;;;;;;;18.49;100.00;101085.47;5011537;28;20077;-31
2022/06/30 02:52:39;;;;;;;8.02;7.25;;;;;;;18.50;100.00;101094.78;5014056;28;20056;-33
2022/06/30 02:55:08;;;;;;;6.28;5.68;;;;;;;18.52;100.00;101096.09;5013040;28;20053;-31
2022/06/30 02:57:36;;;;;;;5.10;4.60;;;;;;;18.52;100.00;101087.63;5014014;28;20056;-35
2022/06/30 03:00:09;;;;;;;5.57;5.07;;;;;;;18.52;100.00;101083.97;5013104;28;20669;-28
2022/06/30 03:02:37;;;;;;;7.50;6.80;;;;;;;18.51;100.00;101085.13;5012485;28;20505;-29
2022/06/30 03:05:06;;;;;;;7.13;5.80;;;;;;;18.51;100.00;101085.13;4995125;28;20093;-29
2022/06/30 03:07:34;;;;;;;8.10;6.38;;;;;;;18.50;100.00;101072.19;5012668;28;20058;-28
2022/06/30 03:10:02;;;;;;;7.35;6.45;;;;;;;18.50;100.00;101077.84;5013677;28;20068;-29
2022/06/30 03:12:30;;;;;;;5.55;5.05;;;;;;;18.52;100.00;101083.97;5013019;28;20569;-29
2022/06/30 03:14:58;;;;;;;4.72;4.22;;;;;;;18.52;100.00;101070.66;5012613;28;20466;-30
2022/06/30 03:17:27;;;;;;;5.10;4.60;;;;;;;18.52;100.00;101076.31;5013330;28;20050;-31
2022/06/30 03:19:55;;;;;;;6.38;5.28;;;;;;;18.52;100.00;101065.00;5013470;28;20073;-40
2022/06/30 03:22:23;;;;;;;6.35;5.70;;;;;;;18.53;100.00;101085.63;5012357;28;20057;-32
2022/06/30 03:24:50;;;;;;;8.77;7.20;;;;;;;18.56;100.00;101116.00;5013616;28;20077;-29
2022/06/30 03:27:20;;;;;;;15.63;13.77;;;;;;;18.58;100.00;101108.03;5012714;28;20295;-29
2022/06/30 03:29:48;;;;;;;13.35;11.70;;;;;;;18.60;100.00;101102.84;5012692;28;20414;-30
2022/06/30 03:32:16;;;;;;;12.27;10.57;;;;;;;18.65;100.00;101101.81;5011358;28;20037;-28
2022/06/30 03:34:45;;;;;;;12.23;9.93;;;;;;;18.72;100.00;101104.91;5010933;28;20054;-29
2022/06/30 03:37:13;;;;;;;12.98;11.77;;;;;;;18.76;100.00;101101.03;5011424;28;20541;-34
2022/06/30 03:39:41;;;;;;;11.20;10.10;;;;;;;18.81;100.00;101100.81;5012397;28;20108;-31
2022/06/30 03:42:09;;;;;;;15.35;11.82;;;;;;;18.85;100.00;101092.44;5011878;28;20096;-33
2022/06/30 03:44:37;;;;;;;12.15;10.85;;;;;;;18.89;100.00;101091.41;5011615;28;20136;-28
2022/06/30 03:47:06;;;;;;;10.98;9.15;;;;;;;18.95;100.00;101091.19;5012731;28;20073;-30
2022/06/30 03:49:34;;;;;;;11.43;10.27;;;;;;;18.94;100.00;101098.84;5012556;28;20060;-31
2022/06/30 03:52:04;;;;;;;12.10;10.90;;;;;;;18.93;100.00;101100.84;5012285;28;20050;-34
2022/06/30 03:54:31;;;;;;;8.57;7.68;;;;;;;18.91;100.00;101091.06;5012455;28;20111;-29
2022/06/30 03:56:59;;;;;;;7.30;6.35;;;;;;;18.90;100.00;101093.06;5012384;28;20054;-31
2022/06/30 03:59:35;;;;;;;11.43;9.85;;;;;;;18.88;100.00;101084.09;5013037;28;20042;-31
2022/06/30 04:02:03;;;;;;;9.52;8.10;;;;;;;18.87;100.00;101090.09;5012254;28;20054;-30
2022/06/30 04:04:32;;;;;;;11.32;10.23;;;;;;;18.85;100.00;101098.94;5011678;28;20593;-34
2022/06/30 04:07:00;;;;;;;8.40;7.60;;;;;;;18.85;100.00;101079.13;5012570;28;20049;-32
2022/06/30 04:09:29;;;;;;;7.00;6.30;;;;;;;18.84;100.00;101074.66;5012325;28;20477;-34
2022/06/30 04:11:57;;;;;;;8.40;7.50;;;;;;;18.83;100.00;101078.66;5011963;28;20045;-37
2022/06/30 04:14:25;;;;;;;8.10;7.30;;;;;;;18.84;100.00;101088.81;5012174;28;20050;-32
2022/06/30 04:16:53;;;;;;;7.85;7.05;;;;;;;18.85;100.00;101096.09;5012274;28;20061;-34
2022/06/30 04:19:20;;;;;;;9.25;8.35;;;;;;;18.86;100.00;101096.94;5011266;28;20048;-31
2022/06/30 04:21:48;;;;;;;7.32;6.63;;;;;;;18.86;100.00;101083.63;5012341;28;20050;-30
2022/06/30 04:24:16;;;;;;;5.88;4.93;;;;;;;18.85;100.00;101096.09;5012043;28;20037;-30
2022/06/30 04:26:46;;;;;;;5.90;5.35;;;;;;;18.85;100.00;101101.75;5011535;28;20054;-30
2022/06/30 04:29:13;;;;;;;5.88;5.20;;;;;;;18.87;100.00;101102.25;5012013;28;20046;-30
2022/06/30 04:34:27;;;;;;;11.93;10.63;;;;;;;18.91;100.00;101080.56;5011834;28;20133;-30
2022/06/30 04:36:54;;;;;;;9.25;8.35;;;;;;;18.97;100.00;101086.03;5012140;28;20060;-35
2022/06/30 04:39:22;;;;;;;12.75;11.55;;;;;;;19.01;100.00;101089.78;5010846;28;20069;-38
2022/06/30 04:41:51;;;;;;;8.32;7.43;;;;;;;19.04;100.00;101100.38;5011883;28;20041;-30
2022/06/30 04:44:18;;;;;;;8.25;7.45;;;;;;;19.07;100.00;101096.88;5011416;28;20052;-37
2022/06/30 04:46:47;;;;;;;9.88;8.25;;;;;;;19.09;100.00;101086.84;5010890;28;20484;-30
2022/06/30 04:49:15;;;;;;;9.80;8.80;;;;;;;19.12;100.00;101080.50;5010645;28;20137;-29
2022/06/30 04:51:43;;;;;;;8.57;7.75;;;;;;;19.16;100.00;101091.94;5011015;28;20052;-28
2022/06/30 04:54:10;;;;;;;10.48;7.55;;;;;;;19.20;100.00;101078.72;5009776;28;20049;-33
2022/06/30 04:56:38;;;;;;;8.50;7.55;;;;;;;19.24;100.00;101082.50;5009874;28;20046;-30
2022/06/30 04:59:07;;;;;;;7.45;6.80;;;;;;;19.28;100.00;101089.13;5010406;28;20064;-34
2022/06/30 05:01:35;;;;;;;12.80;10.85;;;;;;;19.30;100.00;101063.28;5010043;28;20138;-30
2022/06/30 05:04:03;;;;;;;9.63;8.52;;;;;;;19.33;100.00;101080.41;4992084;28;20137;-36
2022/06/30 05:06:31;;;;;;;8.25;7.45;;;;;;;19.37;100.00;101092.66;5010337;28;20054;-35
2022/06/30 05:08:59;;;;;;;8.35;6.90;;;;;;;19.40;100.00;101077.78;5009938;28;20133;-30
2022/06/30 05:11:27;;;;;;;8.02;7.22;;;;;;;19.43;100.00;101077.09;5009743;28;20042;-30
2022/06/30 05:13:55;;;;;;;7.75;6.95;;;;;;;19.48;100.00;101078.84;5009833;28;20104;-35
2022/06/30 05:16:24;;;;;;;10.23;8.55;;;;;;;19.52;100.00;101089.16;5009607;28;20060;-32
2022/06/30 05:18:52;;;;;;;9.85;8.85;;;;;;;19.57;100.00;101100.25;5010596;28;20528;-29
2022/06/30 05:21:19;;;;;;;8.50;7.60;;;;;;;19.65;100.00;101103.28;5009033;28;20057;-32
2022/06/30 05:26:32;;;;;;;7.82;7.07;;;;;;;19.80;100.00;101094.91;5009838;28;20053;-33
2022/06/30 05:28:59;;;;;;;11.13;9.57;;;;;;;19.87;100.00;101083.81;5009873;28;20038;-35
2022/06/30 05:31:29;;;;;;;9.50;8.60;;;;;;;19.94;100.00;101086.03;5009968;28;20052;-37
2022/06/30 05:33:56;;;;;;;8.77;7.82;;;;;;;19.97;100.00;101082.50;5010186;28;20054;-29
2022/06/30 05:36:24;;;;;;;10.60;8.98;;;;;;;20.03;100.00;101083.88;5009124;28;20089;-35
2022/06/30 05:38:52;;;;;;;8.88;6.90;;;;;;;20.08;100.00;101074.31;5010211;28;20060;-38
2022/06/30 05:41:20;;;;;;;7.53;6.72;;;;;;;20.12;100.00;101081.75;5007936;28;20057;-30
2022/06/30 05:43:48;;;;;;;9.23;8.30;;;;;;;20.17;100.00;101078.66;5009307;28;20045;-29
2022/06/30 05:46:15;;;;;;;13.27;11.68;;;;;;;20.21;100.00;101081.59;5009677;28;20046;-29
2022/06/30 05:48:45;;;;;;;9.10;8.18;;;;;;;20.25;100.00;101080.50;5010502;28;20573;-36
2022/06/30 05:51:18;;;;;;;11.15;9.30;;;;;;;20.29;100.00;101072.94;5010243;28;20057;-35
2022/06/30 05:53:46;;;;;;;9.80;8.32;;;;;;;20.33;100.00;101069.41;5010706;28;20038;-36
2022/06/30 05:56:13;;;;;;;12.77;11.43;;;;;;;20.38;100.00;101075.69;5010871;28;20041;-31
2022/06/30 05:58:41;;;;;;;10.30;9.32;;;;;;;20.43;100.00;101083.06;5010260;28;20211;-34
2022/06/30 06:01:09;;;;;;;11.10;10.00;;;;;;;20.51;100.00;101087.78;5010680;28;20498;-29
2022/06/30 06:03:37;;;;;;;11.65;10.48;;;;;;;20.58;100.00;101114.31;5009830;28;20046;-29
2022/06/30 06:06:06;;;;;;;14.02;12.60;;;;;;;20.64;100.00;101084.53;5010887;28;20052;-37
2022/06/30 06:08:34;;;;;;;13.32;11.48;;;;;;;20.68;100.00;101083.78;5010577;28;20088;-29
2022/06/30 06:11:02;;;;;;;13.55;11.93;;;;;;;20.71;100.00;101117.94;5010145;28;20056;-30
2022/06/30 06:13:30;;;;;;;12.65;11.15;;;;;;;20.75;100.00;101104.69;5010499;28;20132;-31
2022/06/30 06:15:58;;;;;;;15.13;13.63;;;;;;;20.75;100.00;101101.84;5010843;28;20054;-29
2022/06/30 06:18:26;;;;;;;15.98;14.32;;;;;;;20.75;100.00;101113.19;5009685;28;20064;-29
2022/06/30 06:20:53;;;;;;;11.13;9.60;;;;;;;20.74;100.00;101103.03;5010747;28;20046;-30
2022/06/30 06:23:43;;;;;;;10.02;5.85;;;;;;;20.70;100.00;101101.28;5011251;28;20537;-34
2022/06/30 06:26:10;;;;;;;5.82;5.13;;;;;;;20.68;100.00;101112.97;5014087;28;20423;-32
2022/06/30 06:31:23;;;;;;;3.85;1.52;;;;;;;20.74;100.00;101105.03;5014934;28;20046;-33
2022/06/30 06:33:51;;;;;;;3.15;1.60;;;;;;;20.85;100.00;101103.31;5013731;28;20132;-29
2022/06/30 06:36:19;;;;;;;3.08;1.25;;;;;;;21.03;100.00;101106.63;5014593;28;20050;-31
2022/06/30 06:38:48;;;;;;;2.47;1.40;;;;;;;21.30;100.00;101102.94;5013246;28;20409;-30
2022/06/30 06:41:16;;;;;;;3.95;1.20;;;;;;;21.60;100.00;101117.47;5014283;28;20045;-33
2022/06/30 06:43:44;;;;;;;2.70;1.08;;;;;;;22.01;100.00;101118.91;5013962;28;20041;-29
2022/06/30 06:46:12;;;;;;;4.10;1.30;;;;;;;22.50;100.00;101118.38;5013704;28;20041;-31
2022/06/30 06:48:40;;;;;;;3.05;1.05;;;;;;;23.04;100.00;101135.34;5013630;28;20046;-29
2022/06/30 06:51:08;;;;;;;3.35;1.20;;;;;;;23.48;100.00;101146.34;5014501;28;20058;-31
2022/06/30 06:53:36;;;;;;;2.65;1.13;;;;;;;23.72;100.00;101153.72;5012897;28;20111;-32
2022/06/30 06:56:06;;;;;;;4.10;1.20;;;;;;;24.13;99.81;101158.44;5013995;28;20549;-29
2022/06/30 06:58:34;;;;;;;5.07;1.10;;;;;;;24.61;96.95;101167.28;5013741;28;20126;-33
2022/06/30 07:01:01;;;;;;;6.18;1.30;;;;;;;25.05;93.89;101170.31;5008489;28;20130;-36
2022/06/30 07:03:31;;;;;;;4.57;1.13;;;;;;;25.47;90.70;101152.81;5013967;28;20080;-37
2022/06/30 07:05:59;;;;;;;3.42;1.00;;;;;;;25.79;87.20;101160.84;5012755;28;20115;-37
2022/06/30 07:08:27;;;;;;;2.50;0.80;;;;;;;26.06;85.19;101168.03;5012887;28;20148;-33
2022/06/30 07:10:56;;;;;;;2.85;1.00;;;;;;;26.36;82.69;101168.69;5013806;28;20060;-31
2022/06/30 07:13:26;;;;;;;4.15;0.90;;;;;;;26.69;79.62;101169.66;5012458;28;20058;-41
2022/06/30 07:15:54;;;;;;;3.17;1.17;;;;;;;27.02;77.15;101180.88;5009737;28;20121;-37
2022/06/30 07:18:22;;;;;;;3.33;0.98;;;;;;;27.28;73.65;101182.59;5013836;28;20565;-34
2022/06/30 07:20:50;;;;;;;3.70;1.00;;;;;;;27.36;71.56;101180.56;5010955;28;20119;-33
2022/06/30 07:23:18;;;;;;;2.65;0.77;;;;;;;27.51;70.28;101170.75;5013756;28;20053;-42
2022/06/30 07:25:57;;;;;;;3.60;1.00;;;;;;;27.84;69.00;101169.56;5013468;28;20073;-38
2022/06/30 07:28:26;;;;;;;3.60;0.90;;;;;;;28.26;67.39;101165.03;5012899;28;20402;-32
2022/06/30 07:31:15;;;;;;;6.15;1.20;;;;;;;28.66;64.56;101184.63;5012135;28;20491;-41
2022/06/30 07:33:44;;;;;;;4.50;1.02;;;;;;;28.91;63.44;101187.44;5013640;28;20053;-33
2022/06/30 07:36:12;;;;;;;3.53;0.90;;;;;;;29.18;60.72;101184.03;5011453;28;20104;-36
2022/06/30 07:38:41;;;;;;;4.07;1.23;;;;;;;29.35;58.77;101198.31;5013590;28;20072;-37
2022/06/30 07:41:08;;;;;;;3.83;0.98;;;;;;;29.43;57.47;101199.91;5012943;28;20482;-32
2022/06/30 07:43:38;;;;;;;3.55;0.98;;;;;;;29.65;57.50;101196.88;5012132;28;20088;-41
2022/06/30 07:46:09;;;;;;;4.05;1.08;;;;;;;29.98;55.69;101201.16;5012960;28;20056;-33
2022/06/30 07:48:37;;;;;;;5.45;1.20;;;;;;;30.17;54.50;101217.06;5013177;28;20046;-33
2022/06/30 07:51:06;;;;;;;3.55;0.98;;;;;;;30.32;52.44;101209.91;5012105;28;20042;-33
2022/06/30 07:53:34;;;;;;;4.15;1.10;;;;;;;30.34;53.46;101214.00;5013090;28;20072;-31
2022/06/30 07:56:02;;;;;;;4.78;1.15;;;;;;;30.59;52.18;101218.69;5011823;28;20045;-32
2022/06/30 07:58:30;;;;;;;2.90;0.90;;;;;;;30.80;50.87;101218.47;5012720;28;20046;-36
2022/06/30 08:00:59;;;;;;;3.67;0.80;;;;;;;31.08;50.18;101229.66;5012468;28;20060;-37
2022/06/30 08:03:28;;;;;;;3.58;1.10;;;;;;;31.36;49.54;101224.78;5012276;28;20054;-34
2022/06/30 08:05:57;;;;;;;3.58;0.90;;;;;;;31.61;47.69;101222.34;5012298;28;20550;-31
2022/06/30 08:08:25;;;;;;;2.55;0.77;;;;;;;31.67;47.46;101226.41;5009184;28;20101;-39
2022/06/30 08:10:53;;;;;;;3.88;1.20;;;;;;;31.78;45.92;101234.88;5011726;28;20052;-32
2022/06/30 08:13:24;;;;;;;4.93;1.00;;;;;;;31.81;45.12;101231.13;5012468;28;20522;-32
2022/06/30 08:15:52;;;;;;;3.42;0.93;;;;;;;31.91;45.38;101224.38;5012532;28;20132;-37
2022/06/30 08:18:21;;;;;;;3.67;1.00;;;;;;;32.21;43.88;101228.44;5011698;28;20413;-38
2022/06/30 08:20:49;;;;;;;4.95;1.17;;;;;;;32.38;43.04;101222.31;5012199;28;20522;-39
2022/06/30 08:23:17;;;;;;;2.88;0.90;;;;;;;32.67;42.68;101236.25;5012135;28;20220;-33
2022/06/30 08:25:45;;;;;;;4.03;1.00;;;;;;;32.93;42.44;101229.56;4993207;28;20140;-37
2022/06/30 08:28:13;;;;;;;3.72;1.00;;;;;;;33.13;41.28;101223.75;5011730;28;20050;-31
2022/06/30 08:30:41;;;;;;;2.13;0.80;;;;;;;33.30;40.97;101227.56;5012147;28;20056;-40
2022/06/30 08:33:08;;;;;;;2.13;0.70;;;;;;;33.47;40.54;101232.13;5011029;28;20490;-36
2022/06/30 08:35:38;;;;;;;2.60;0.95;;;;;;;33.61;39.50;101231.78;5012127;28;20050;-30
2022/06/30 08:38:25;;;;;;;2.28;0.80;;;;;;;33.70;38.85;101236.97;5011076;28;20038;-33
2022/06/30 08:43:39;;;;;;;4.15;0.90;;;;;;;33.99;38.51;101252.41;5010619;28;20045;-30
2022/06/30 08:46:08;;;;;;;2.55;0.90;;;;;;;34.14;37.53;101252.88;5011457;28;20411;-30
2022/06/30 08:48:36;;;;;;;2.50;0.73;;;;;;;34.25;37.67;101249.69;5011270;28;20077;-37
2022/06/30 08:51:07;;;;;;;2.85;0.95;;;;;;;34.46;37.59;101247.06;5011838;28;20048;-33
2022/06/30 08:53:40;;;;;;;2.58;0.80;;;;;;;34.60;37.12;101247.94;5010922;28;20474;-33
2022/06/30 08:56:08;;;;;;;2.97;0.88;;;;;;;34.60;37.20;101245.03;5012311;28;20060;-30
2022/06/30 08:58:38;;;;;;;2.80;0.70;;;;;;;34.70;36.82;101246.84;5011203;28;20038;-36
2022/06/30 09:01:06;;;;;;;2.30;0.70;;;;;;;34.83;36.32;101250.63;5011255;28;20039;-40
2022/06/30 09:03:36;;;;;;;2.80;0.77;;;;;;;34.91;34.65;101243.38;5011167;28;20522;-34
2022/06/30 09:06:06;;;;;;;1.83;0.65;;;;;;;34.86;35.61;101244.75;5011799;28;20046;-32
2022/06/30 09:08:34;;;;;;;2.63;0.70;;;;;;;34.91;35.19;101248.34;5010539;28;20046;-37
2022/06/30 09:11:04;;;;;;;2.58;0.90;;;;;;;35.03;35.02;101254.19;5011437;28;20285;-35
2022/06/30 09:13:42;;;;;;;2.60;0.80;;;;;;;35.24;34.64;101249.84;5010425;28;20053;-35
2022/06/30 09:16:10;;;;;;;1.70;0.63;;;;;;;35.38;34.08;101252.34;5001118;28;20059;-33
2022/06/30 09:18:38;;;;;;;1.85;0.70;;;;;;;35.50;33.58;101244.94;5011023;28;20128;-36
2022/06/30 09:21:15;;;;;;;2.53;0.60;;;;;;;35.68;32.65;101256.78;5010427;28;20054;-40
2022/06/30 09:23:45;;;;;;;1.95;0.60;;;;;;;35.80;32.88;101255.19;5010998;28;20072;-32
2022/06/30 09:26:19;;;;;;;1.75;0.55;;;;;;;35.89;32.32;101247.44;5011514;28;20137;-39
2022/06/30 09:28:50;;;;;;;1.80;0.90;;;;;;;35.93;32.98;101247.31;5010354;28;20053;-38
2022/06/30 09:31:39;;;;;;;2.22;0.70;;;;;;;36.00;32.85;101249.16;4991782;28;20045;-33
2022/06/30 09:34:16;;;;;;;1.90;0.70;;;;;;;35.96;32.30;101254.28;5001252;28;20073;-37
2022/06/30 09:36:47;;;;;;;2.25;0.60;;;;;;;35.80;32.61;101250.19;5010786;28;20095;-34
2022/06/30 09:39:17;;;;;;;2.35;0.70;;;;;;;35.80;32.74;101258.09;5010794;28;20136;-31
2022/06/30 09:41:48;;;;;;;2.95;0.73;;;;;;;35.73;32.81;101264.94;5010446;28;20060;-40
2022/06/30 09:44:20;;;;;;;1.80;0.60;;;;;;;35.60;32.81;101272.81;5011475;28;20046;-30
2022/06/30 09:46:59;;;;;;;2.38;0.75;;;;;;;35.48;32.05;101271.53;5010959;28;20289;-34
2022/06/30 09:49:31;;;;;;;2.40;0.70;;;;;;;35.48;33.11;101277.34;5009567;28;20045;-37
2022/06/30 09:52:03;;;;;;;2.55;0.80;;;;;;;35.44;33.84;101275.81;5011060;28;20045;-35
2022/06/30 09:54:33;;;;;;;4.15;0.93;;;;;;;35.23;33.99;101266.44;5010651;28;20081;-39
2022/06/30 09:57:02;;;;;;;3.25;0.80;;;;;;;35.10;34.57;101271.41;5010051;28;20046;-34
2022/06/30 09:59:30;;;;;;;2.58;0.80;;;;;;;35.17;35.02;101273.28;5010243;28;20509;-31
2022/06/30 10:01:59;;;;;;;3.78;1.00;;;;;;;35.18;34.95;101281.50;5010969;28;20048;-33
2022/06/30 10:04:27;;;;;;;2.35;0.70;;;;;;;35.03;34.47;101286.09;5010090;28;20137;-35
2022/06/30 10:06:55;;;;;;;2.40;0.80;;;;;;;34.70;35.60;101281.66;5010467;28;20058;-35
2022/06/30 10:09:33;;;;;;;2.90;1.00;;;;;;;34.57;35.63;101298.97;5010107;28;20415;-33
2022/06/30 10:12:00;;;;;;;2.35;0.60;;;;;;;34.38;35.87;101302.78;5010703;28;20069;-36
2022/06/30 10:14:32;;;;;;;3.25;0.80;;;;;;;34.25;36.09;101320.03;5010478;28;20173;-35
2022/06/30 10:17:00;;;;;;;3.05;0.90;;;;;;;34.22;35.92;101309.34;5009812;28;20042;-35
2022/06/30 10:19:27;;;;;;;3.05;0.90;;;;;;;34.10;36.11;101308.00;5010600;28;20046;-39
2022/06/30 10:21:56;;;;;;;2.50;0.88;;;;;;;34.09;36.26;101306.38;5010212;28;20052;-31
2022/06/30 10:24:24;;;;;;;3.58;0.93;;;;;;;33.78;36.48;101299.25;5010068;28;20058;-31
2022/06/30 10:27:13;;;;;;;4.80;1.00;;;;;;;33.83;36.96;101301.63;5010348;28;20042;-42
2022/06/30 10:29:46;;;;;;;2.35;0.60;;;;;;;33.93;36.77;101299.75;5010763;28;20104;-31
2022/06/30 10:32:24;;;;;;;2.70;1.00;;;;;;;33.96;36.52;101288.06;5009680;28;20056;-31
2022/06/30 10:35:00;;;;;;;3.05;1.00;;;;;;;34.12;36.53;101290.97;5010749;28;20077;-30
2022/06/30 10:37:35;;;;;;;3.03;0.80;;;;;;;34.23;36.13;101294.41;5009752;28;20079;-32
2022/06/30 10:40:09;;;;;;;2.85;0.98;;;;;;;34.32;36.10;101293.81;5010249;28;20080;-31
2022/06/30 10:42:47;;;;;;;2.97;0.90;;;;;;;34.37;35.60;101299.09;5009276;28;20498;-31
2022/06/30 10:45:37;;;;;;;4.15;1.20;;;;;;;34.36;35.40;101291.66;5010177;28;20056;-35
2022/06/30 10:48:07;;;;;;;3.08;1.20;;;;;;;34.18;35.96;101297.84;5010449;28;20054;-33
2022/06/30 10:50:37;;;;;;;2.20;0.60;;;;;;;34.01;36.58;101301.19;4991706;28;20492;-38
2022/06/30 10:53:07;;;;;;;2.87;1.07;;;;;;;33.87;36.64;101300.28;5005882;28;20084;-41
2022/06/30 10:55:45;;;;;;;2.95;0.80;;;;;;;33.81;36.03;101292.56;5010705;28;20077;-29
2022/06/30 10:58:15;;;;;;;3.40;0.90;;;;;;;33.73;36.92;101288.19;5009867;28;20045;-33
2022/06/30 11:00:45;;;;;;;3.28;0.95;;;;;;;33.77;36.95;101295.56;5009528;28;20049;-35
2022/06/30 11:03:59;;;;;;;4.40;1.20;;;;;;;33.71;36.32;101293.59;5009770;28;20056;-37
2022/06/30 11:07:01;;;;;;;3.38;1.30;;;;;;;33.62;36.38;101299.16;4994078;28;20041;-33
2022/06/30 11:09:58;;;;;;;3.13;0.90;;;;;;;33.62;35.96;101296.28;5009190;28;20404;-38
2022/06/30 11:13:08;;;;;;;2.92;0.80;;;;;;;33.46;36.01;101294.97;5012627;28;20045;-38
2022/06/30 11:15:51;;;;;;;3.17;0.80;;;;;;;33.46;37.10;101294.16;4932105;29;20052;-35
2022/06/30 11:18:21;;;;;;;3.40;1.02;;;;;;;33.32;37.51;101303.97;4932168;29;20442;-30
2022/06/30 11:20:53;;;;;;;3.30;0.90;;;;;;;33.19;37.74;101300.06;4969197;28;20050;-36
2022/06/30 11:23:22;;;;;;;2.35;0.80;;;;;;;33.28;37.30;101308.19;5008015;28;20068;-35
2022/06/30 11:28:40;;;;;;;3.38;0.80;;;;;;;33.26;37.64;101325.19;5011278;28;20046;-39
2022/06/30 11:31:29;;;;;;;2.38;0.73;;;;;;;33.20;37.78;101316.97;5012409;28;20499;-39
2022/06/30 11:33:59;;;;;;;3.00;1.02;;;;;;;33.22;37.95;101316.53;5011342;28;20049;-32
2022/06/30 11:36:27;;;;;;;3.20;1.00;;;;;;;33.05;38.32;101321.41;5012535;28;20044;-35
2022/06/30 11:38:57;;;;;;;2.65;0.60;;;;;;;33.03;38.75;101323.13;5010679;28;20053;-31
2022/06/30 11:44:14;;;;;;;2.03;0.75;;;;;;;32.75;39.04;101324.50;5011834;28;20153;-37
2022/06/30 11:46:54;;;;;;;2.35;0.80;;;;;;;32.71;38.97;101324.53;5011986;28;20501;-31
2022/06/30 11:49:26;;;;;;;2.92;0.70;;;;;;;32.63;39.71;101317.22;5010778;28;20069;-29